sensor_id;sensor_type;location;lat;lon;timestamp;pressure;altitude;pressure_sealevel;temperature;humidity
64402;BME280;50724;42.376;23.768;2023-03-25T00:01:43;92935.00;;;5.98;84.86
64402;BME280;50724;42.376;23.768;2023-03-25T00:04:48;92935.34;;;6.13;84.98
64402;BME280;50724;42.376;23.768;2023-03-25T00:07:51;92927.50;;;6.22;83.86
64402;BME280;50724;42.376;23.768;2023-03-25T00:10:57;92926.63;;;6.32;83.75
64402;BME280;50724;42.376;23.768;2023-03-25T00:13:58;92920.53;;;6.23;83.33
64402;BME280;50724;42.376;23.768;2023-03-25T00:16:59;92912.38;;;6.18;83.21
64402;BME280;50724;42.376;23.768;2023-03-25T00:20:00;92914.81;;;6.19;82.25
64402;BME280;50724;42.376;23.768;2023-03-25T00:23:01;92914.28;;;6.16;83.00
64402;BME280;50724;42.376;23.768;2023-03-25T00:26:02;92910.22;;;6.13;83.08
64402;BME280;50724;42.376;23.768;2023-03-25T00:29:03;92904.56;;;6.18;82.85
64402;BME280;50724;42.376;23.768;2023-03-25T00:32:03;92905.19;;;6.30;81.95
64402;BME280;50724;42.376;23.768;2023-03-25T00:35:05;92898.91;;;6.32;82.34
64402;BME280;50724;42.376;23.768;2023-03-25T00:38:05;92899.00;;;6.13;82.80
64402;BME280;50724;42.376;23.768;2023-03-25T00:41:27;92900.50;;;6.15;83.50
64402;BME280;50724;42.376;23.768;2023-03-25T00:44:28;92895.06;;;6.09;83.35
64402;BME280;50724;42.376;23.768;2023-03-25T00:47:28;92885.00;;;5.96;83.16
64402;BME280;50724;42.376;23.768;2023-03-25T00:50:29;92885.56;;;6.00;82.17
64402;BME280;50724;42.376;23.768;2023-03-25T00:53:29;92882.63;;;5.76;83.35
64402;BME280;50724;42.376;23.768;2023-03-25T00:56:30;92874.03;;;5.66;84.05
64402;BME280;50724;42.376;23.768;2023-03-25T00:59:31;92869.16;;;5.63;83.85
64402;BME280;50724;42.376;23.768;2023-03-25T01:02:31;92870.31;;;5.78;83.77
64402;BME280;50724;42.376;23.768;2023-03-25T01:05:32;92866.31;;;5.93;82.29
64402;BME280;50724;42.376;23.768;2023-03-25T01:08:33;92859.66;;;5.81;82.87
64402;BME280;50724;42.376;23.768;2023-03-25T01:11:34;92866.09;;;5.77;83.72
64402;BME280;50724;42.376;23.768;2023-03-25T01:14:36;92851.19;;;5.79;83.16
64402;BME280;50724;42.376;23.768;2023-03-25T01:17:37;92852.66;;;5.91;82.85
64402;BME280;50724;42.376;23.768;2023-03-25T01:20:38;92852.00;;;5.79;83.30
64402;BME280;50724;42.376;23.768;2023-03-25T01:23:39;92850.22;;;5.89;83.39
64402;BME280;50724;42.376;23.768;2023-03-25T01:26:40;92852.00;;;5.79;84.33
64402;BME280;50724;42.376;23.768;2023-03-25T01:29:42;92844.66;;;5.75;83.29
64402;BME280;50724;42.376;23.768;2023-03-25T01:32:43;92843.91;;;5.65;83.46
64402;BME280;50724;42.376;23.768;2023-03-25T01:35:44;92834.47;;;5.64;83.53
64402;BME280;50724;42.376;23.768;2023-03-25T01:38:52;92826.75;;;5.81;84.68
64402;BME280;50724;42.376;23.768;2023-03-25T01:41:53;92829.38;;;5.72;84.00
64402;BME280;50724;42.376;23.768;2023-03-25T01:45:18;92832.22;;;5.78;82.61
64402;BME280;50724;42.376;23.768;2023-03-25T01:48:27;92830.72;;;5.76;83.07
64402;BME280;50724;42.376;23.768;2023-03-25T01:51:31;92824.94;;;5.82;81.71
64402;BME280;50724;42.376;23.768;2023-03-25T01:54:33;92819.44;;;5.67;82.04
64402;BME280;50724;42.376;23.768;2023-03-25T01:57:34;92817.69;;;5.58;82.40
64402;BME280;50724;42.376;23.768;2023-03-25T02:00:36;92820.28;;;5.31;84.04
64402;BME280;50724;42.376;23.768;2023-03-25T02:03:37;92818.41;;;5.14;85.26
64402;BME280;50724;42.376;23.768;2023-03-25T02:06:47;92807.69;;;5.36;85.06
64402;BME280;50724;42.376;23.768;2023-03-25T02:09:50;92804.00;;;5.38;84.18
64402;BME280;50724;42.376;23.768;2023-03-25T02:12:50;92803.94;;;5.11;85.13
64402;BME280;50724;42.376;23.768;2023-03-25T02:16:04;92790.78;;;4.95;86.45
64402;BME280;50724;42.376;23.768;2023-03-25T02:26:24;92783.84;;;4.86;87.63
64402;BME280;50724;42.376;23.768;2023-03-25T02:39:16;92779.53;;;5.14;88.29
64402;BME280;50724;42.376;23.768;2023-03-25T02:42:39;92768.84;;;5.26;88.22
64402;BME280;50724;42.376;23.768;2023-03-25T02:45:46;92764.91;;;5.22;87.52
64402;BME280;50724;42.376;23.768;2023-03-25T02:49:00;92768.44;;;5.21;87.09
64402;BME280;50724;42.376;23.768;2023-03-25T02:52:14;92769.84;;;5.16;87.31
64402;BME280;50724;42.376;23.768;2023-03-25T02:55:18;92754.16;;;5.17;87.04
64402;BME280;50724;42.376;23.768;2023-03-25T02:58:20;92759.66;;;5.05;87.60
64402;BME280;50724;42.376;23.768;2023-03-25T03:01:21;92756.38;;;5.03;87.46
64402;BME280;50724;42.376;23.768;2023-03-25T03:04:26;92749.31;;;4.95;87.57
64402;BME280;50724;42.376;23.768;2023-03-25T03:07:38;92748.13;;;4.90;88.57
64402;BME280;50724;42.376;23.768;2023-03-25T03:17:22;92744.09;;;5.05;89.24
64402;BME280;50724;42.376;23.768;2023-03-25T03:23:45;92739.19;;;5.38;87.04
64402;BME280;50724;42.376;23.768;2023-03-25T03:29:56;92750.22;;;5.40;86.54
64402;BME280;50724;42.376;23.768;2023-03-25T03:33:17;92748.88;;;5.36;86.05
64402;BME280;50724;42.376;23.768;2023-03-25T03:36:25;92752.47;;;5.26;86.16
64402;BME280;50724;42.376;23.768;2023-03-25T03:39:30;92750.03;;;5.24;86.14
64402;BME280;50724;42.376;23.768;2023-03-25T03:42:36;92744.50;;;5.37;85.48
64402;BME280;50724;42.376;23.768;2023-03-25T03:45:43;92744.94;;;5.32;85.66
64402;BME280;50724;42.376;23.768;2023-03-25T03:48:51;92745.09;;;5.31;86.04
64402;BME280;50724;42.376;23.768;2023-03-25T03:52:01;92746.84;;;5.30;87.49
64402;BME280;50724;42.376;23.768;2023-03-25T03:55:07;92749.38;;;5.22;87.51
64402;BME280;50724;42.376;23.768;2023-03-25T03:58:13;92741.56;;;5.49;85.47
64402;BME280;50724;42.376;23.768;2023-03-25T04:01:19;92754.63;;;5.30;86.18
64402;BME280;50724;42.376;23.768;2023-03-25T04:04:27;92750.69;;;5.26;87.72
64402;BME280;50724;42.376;23.768;2023-03-25T04:07:34;92749.59;;;5.29;87.99
64402;BME280;50724;42.376;23.768;2023-03-25T04:13:41;92743.78;;;5.44;87.37
64402;BME280;50724;42.376;23.768;2023-03-25T04:16:43;92745.97;;;5.39;87.40
64402;BME280;50724;42.376;23.768;2023-03-25T04:19:44;92745.97;;;5.39;87.38
64402;BME280;50724;42.376;23.768;2023-03-25T04:22:48;92740.94;;;5.38;87.13
64402;BME280;50724;42.376;23.768;2023-03-25T04:25:50;92745.78;;;5.23;87.88
64402;BME280;50724;42.376;23.768;2023-03-25T04:28:55;92743.16;;;5.33;88.19
64402;BME280;50724;42.376;23.768;2023-03-25T04:32:01;92747.44;;;5.51;86.55
64402;BME280;50724;42.376;23.768;2023-03-25T04:35:02;92743.66;;;5.46;86.34
64402;BME280;50724;42.376;23.768;2023-03-25T04:38:03;92747.94;;;5.82;84.58
64402;BME280;50724;42.376;23.768;2023-03-25T04:41:05;92745.44;;;6.86;80.86
64402;BME280;50724;42.376;23.768;2023-03-25T04:44:06;92748.97;;;7.87;75.73
64402;BME280;50724;42.376;23.768;2023-03-25T04:47:11;92754.94;;;9.02;70.64
64402;BME280;50724;42.376;23.768;2023-03-25T04:53:18;92755.38;;;10.68;62.28
64402;BME280;50724;42.376;23.768;2023-03-25T04:56:18;92752.31;;;11.98;57.92
64402;BME280;50724;42.376;23.768;2023-03-25T04:59:19;92749.75;;;12.19;56.30
64402;BME280;50724;42.376;23.768;2023-03-25T05:02:23;92752.69;;;13.64;51.58
64402;BME280;50724;42.376;23.768;2023-03-25T05:05:24;92757.91;;;13.92;51.33
64402;BME280;50724;42.376;23.768;2023-03-25T05:08:25;92756.31;;;15.38;46.41
64402;BME280;50724;42.376;23.768;2023-03-25T05:11:25;92752.00;;;16.46;44.02
64402;BME280;50724;42.376;23.768;2023-03-25T05:14:34;92756.09;;;15.72;45.84
64402;BME280;50724;42.376;23.768;2023-03-25T05:17:35;92756.25;;;15.90;45.23
64402;BME280;50724;42.376;23.768;2023-03-25T05:20:37;92751.34;;;17.02;43.35
64402;BME280;50724;42.376;23.768;2023-03-25T05:23:39;92742.75;;;17.13;42.47
64402;BME280;50724;42.376;23.768;2023-03-25T05:26:41;92749.19;;;18.34;39.77
64402;BME280;50724;42.376;23.768;2023-03-25T05:29:47;92748.19;;;17.43;41.52
64402;BME280;50724;42.376;23.768;2023-03-25T05:32:51;92755.47;;;15.44;44.19
64402;BME280;50724;42.376;23.768;2023-03-25T05:35:52;92740.16;;;14.07;48.77
64402;BME280;50724;42.376;23.768;2023-03-25T05:38:53;92745.25;;;13.12;51.17
64402;BME280;50724;42.376;23.768;2023-03-25T05:41:53;92744.72;;;12.81;53.86
64402;BME280;50724;42.376;23.768;2023-03-25T05:44:54;92747.75;;;12.21;55.70
64402;BME280;50724;42.376;23.768;2023-03-25T05:47:56;92746.41;;;11.96;58.47
64402;BME280;50724;42.376;23.768;2023-03-25T05:51:00;92749.94;;;12.03;59.63
64402;BME280;50724;42.376;23.768;2023-03-25T05:54:03;92744.63;;;11.82;59.45
64402;BME280;50724;42.376;23.768;2023-03-25T05:57:10;92744.81;;;11.80;61.93
64402;BME280;50724;42.376;23.768;2023-03-25T06:00:12;92756.81;;;11.74;61.88
64402;BME280;50724;42.376;23.768;2023-03-25T06:03:12;92755.09;;;11.67;61.93
64402;BME280;50724;42.376;23.768;2023-03-25T06:06:14;92748.50;;;11.56;62.83
64402;BME280;50724;42.376;23.768;2023-03-25T06:09:17;92746.78;;;11.34;62.99
64402;BME280;50724;42.376;23.768;2023-03-25T06:12:19;92745.06;;;11.56;63.07
64402;BME280;50724;42.376;23.768;2023-03-25T06:15:20;92738.22;;;11.84;62.54
64402;BME280;50724;42.376;23.768;2023-03-25T06:18:27;92736.47;;;12.06;61.91
64402;BME280;50724;42.376;23.768;2023-03-25T06:21:30;92740.75;;;12.28;61.04
64402;BME280;50724;42.376;23.768;2023-03-25T06:24:31;92741.47;;;12.58;62.22
64402;BME280;50724;42.376;23.768;2023-03-25T06:27:32;92734.59;;;12.78;62.70
64402;BME280;50724;42.376;23.768;2023-03-25T06:30:33;92748.47;;;12.93;60.34
64402;BME280;50724;42.376;23.768;2023-03-25T06:33:34;92746.28;;;12.96;59.44
64402;BME280;50724;42.376;23.768;2023-03-25T06:36:35;92752.91;;;12.92;60.58
64402;BME280;50724;42.376;23.768;2023-03-25T06:39:35;92751.34;;;12.98;60.93
64402;BME280;50724;42.376;23.768;2023-03-25T06:42:38;92754.59;;;13.00;61.36
64402;BME280;50724;42.376;23.768;2023-03-25T06:45:41;92752.66;;;13.08;61.67
64402;BME280;50724;42.376;23.768;2023-03-25T06:48:41;92749.84;;;13.31;60.85
64402;BME280;50724;42.376;23.768;2023-03-25T06:51:42;92744.66;;;13.44;60.40
64402;BME280;50724;42.376;23.768;2023-03-25T06:54:42;92751.56;;;13.79;59.17
64402;BME280;50724;42.376;23.768;2023-03-25T06:57:43;92747.75;;;13.89;58.12
64402;BME280;50724;42.376;23.768;2023-03-25T07:00:43;92759.69;;;13.85;56.90
64402;BME280;50724;42.376;23.768;2023-03-25T07:03:45;92753.50;;;14.05;58.20
64402;BME280;50724;42.376;23.768;2023-03-25T07:06:45;92758.19;;;14.10;57.43
64402;BME280;50724;42.376;23.768;2023-03-25T07:09:50;92758.56;;;14.41;55.86
64402;BME280;50724;42.376;23.768;2023-03-25T07:12:50;92750.50;;;14.56;55.06
64402;BME280;50724;42.376;23.768;2023-03-25T07:15:54;92752.31;;;14.55;54.29
64402;BME280;50724;42.376;23.768;2023-03-25T07:18:55;92754.00;;;14.82;55.37
64402;BME280;50724;42.376;23.768;2023-03-25T07:21:56;92754.22;;;14.94;55.17
64402;BME280;50724;42.376;23.768;2023-03-25T07:24:56;92755.69;;;15.09;54.22
64402;BME280;50724;42.376;23.768;2023-03-25T07:27:57;92755.28;;;15.19;53.32
64402;BME280;50724;42.376;23.768;2023-03-25T07:30:58;92751.63;;;15.40;53.19
64402;BME280;50724;42.376;23.768;2023-03-25T07:33:58;92742.91;;;15.72;51.36
64402;BME280;50724;42.376;23.768;2023-03-25T07:37:07;92751.19;;;15.89;51.07
64402;BME280;50724;42.376;23.768;2023-03-25T07:40:10;92735.56;;;15.94;50.67
64402;BME280;50724;42.376;23.768;2023-03-25T07:43:15;92741.63;;;16.01;51.42
64402;BME280;50724;42.376;23.768;2023-03-25T07:46:20;92740.41;;;16.03;51.20
64402;BME280;50724;42.376;23.768;2023-03-25T07:49:25;92727.94;;;16.23;42.81
64402;BME280;50724;42.376;23.768;2023-03-25T07:52:25;92738.81;;;16.53;42.53
64402;BME280;50724;42.376;23.768;2023-03-25T07:55:25;92729.78;;;16.74;41.50
64402;BME280;50724;42.376;23.768;2023-03-25T07:58:26;92728.28;;;16.84;40.27
64402;BME280;50724;42.376;23.768;2023-03-25T08:01:27;92723.66;;;17.04;40.17
64402;BME280;50724;42.376;23.768;2023-03-25T08:04:28;92728.81;;;16.99;39.97
64402;BME280;50724;42.376;23.768;2023-03-25T08:07:28;92726.19;;;17.24;39.73
64402;BME280;50724;42.376;23.768;2023-03-25T08:10:29;92732.56;;;17.41;40.38
64402;BME280;50724;42.376;23.768;2023-03-25T08:13:29;92732.16;;;17.69;39.12
64402;BME280;50724;42.376;23.768;2023-03-25T08:16:30;92729.81;;;17.30;38.31
64402;BME280;50724;42.376;23.768;2023-03-25T08:19:32;92730.88;;;17.53;38.38
64402;BME280;50724;42.376;23.768;2023-03-25T08:22:35;92730.88;;;17.53;38.90
64402;BME280;50724;42.376;23.768;2023-03-25T08:25:37;92716.88;;;17.46;38.98
64402;BME280;50724;42.376;23.768;2023-03-25T08:28:40;92720.16;;;17.42;40.03
64402;BME280;50724;42.376;23.768;2023-03-25T08:31:40;92725.47;;;17.35;40.07
64402;BME280;50724;42.376;23.768;2023-03-25T08:34:41;92719.19;;;17.36;39.93
64402;BME280;50724;42.376;23.768;2023-03-25T08:37:41;92710.63;;;17.09;40.31
64402;BME280;50724;42.376;23.768;2023-03-25T08:40:42;92716.13;;;17.33;39.79
64402;BME280;50724;42.376;23.768;2023-03-25T08:43:43;92705.09;;;17.67;37.80
64402;BME280;50724;42.376;23.768;2023-03-25T08:46:43;92711.81;;;17.88;39.30
64402;BME280;50724;42.376;23.768;2023-03-25T08:49:44;92698.97;;;18.09;38.64
64402;BME280;50724;42.376;23.768;2023-03-25T08:52:44;92700.63;;;18.58;37.99
64402;BME280;50724;42.376;23.768;2023-03-25T08:55:45;92696.50;;;18.44;36.95
64402;BME280;50724;42.376;23.768;2023-03-25T08:58:45;92681.59;;;18.13;37.78
64402;BME280;50724;42.376;23.768;2023-03-25T09:01:46;92700.41;;;17.87;38.32
64402;BME280;50724;42.376;23.768;2023-03-25T09:04:47;92690.13;;;17.79;38.40
64402;BME280;50724;42.376;23.768;2023-03-25T09:07:48;92698.34;;;17.89;39.09
64402;BME280;50724;42.376;23.768;2023-03-25T09:10:48;92683.53;;;17.70;39.32
64402;BME280;50724;42.376;23.768;2023-03-25T09:13:49;92678.22;;;18.06;39.34
64402;BME280;50724;42.376;23.768;2023-03-25T09:16:49;92689.19;;;18.46;37.84
64402;BME280;50724;42.376;23.768;2023-03-25T09:19:50;92683.34;;;18.56;37.74
64402;BME280;50724;42.376;23.768;2023-03-25T09:22:50;92674.38;;;18.57;37.96
64402;BME280;50724;42.376;23.768;2023-03-25T09:25:51;92662.19;;;18.67;37.09
64402;BME280;50724;42.376;23.768;2023-03-25T09:28:52;92667.44;;;18.85;37.45
64402;BME280;50724;42.376;23.768;2023-03-25T09:31:54;92670.63;;;18.76;38.01
64402;BME280;50724;42.376;23.768;2023-03-25T09:34:57;92662.31;;;18.61;37.30
64402;BME280;50724;42.376;23.768;2023-03-25T09:37:57;92670.22;;;18.31;37.71
64402;BME280;50724;42.376;23.768;2023-03-25T09:41:01;92663.56;;;18.40;37.46
64402;BME280;50724;42.376;23.768;2023-03-25T09:44:18;92664.09;;;18.48;37.96
64402;BME280;50724;42.376;23.768;2023-03-25T09:47:22;92653.84;;;18.82;38.54
64402;BME280;50724;42.376;23.768;2023-03-25T09:50:24;92662.91;;;18.74;39.29
64402;BME280;50724;42.376;23.768;2023-03-25T09:53:28;92661.69;;;18.40;37.90
64402;BME280;50724;42.376;23.768;2023-03-25T09:56:36;92657.47;;;18.39;37.83
64402;BME280;50724;42.376;23.768;2023-03-25T09:59:44;92652.16;;;18.58;37.86
64402;BME280;50724;42.376;23.768;2023-03-25T10:06:11;92639.53;;;18.83;36.06
64402;BME280;50724;42.376;23.768;2023-03-25T10:23:12;92621.41;;;19.33;35.69
64402;BME280;50724;42.376;23.768;2023-03-25T10:30:11;92610.00;;;19.32;35.22
64402;BME280;50724;42.376;23.768;2023-03-25T10:33:40;92600.59;;;19.36;35.18
64402;BME280;50724;42.376;23.768;2023-03-25T10:36:52;92585.97;;;19.97;36.63
64402;BME280;50724;42.376;23.768;2023-03-25T10:39:58;92581.53;;;20.02;34.70
64402;BME280;50724;42.376;23.768;2023-03-25T10:43:26;92576.88;;;19.93;33.57
64402;BME280;50724;42.376;23.768;2023-03-25T10:46:34;92562.59;;;20.22;33.75
64402;BME280;50724;42.376;23.768;2023-03-25T10:49:47;92565.56;;;20.70;33.61
64402;BME280;50724;42.376;23.768;2023-03-25T10:52:48;92568.63;;;20.62;33.89
64402;BME280;50724;42.376;23.768;2023-03-25T10:55:57;92561.16;;;20.76;33.23
64402;BME280;50724;42.376;23.768;2023-03-25T11:02:21;92527.84;;;20.12;32.49
64402;BME280;50724;42.376;23.768;2023-03-25T11:05:27;92537.78;;;20.61;32.74
64402;BME280;50724;42.376;23.768;2023-03-25T11:08:28;92539.25;;;20.69;32.22
64402;BME280;50724;42.376;23.768;2023-03-25T11:11:33;92523.88;;;20.87;33.91
64402;BME280;50724;42.376;23.768;2023-03-25T11:14:42;92533.84;;;20.64;32.10
64402;BME280;50724;42.376;23.768;2023-03-25T11:17:45;92526.31;;;20.89;32.94
64402;BME280;50724;42.376;23.768;2023-03-25T11:20:48;92519.03;;;21.17;31.70
64402;BME280;50724;42.376;23.768;2023-03-25T11:23:50;92505.44;;;21.14;31.70
64402;BME280;50724;42.376;23.768;2023-03-25T11:26:52;92497.13;;;20.77;32.86
64402;BME280;50724;42.376;23.768;2023-03-25T11:30:04;92489.88;;;20.56;32.43
64402;BME280;50724;42.376;23.768;2023-03-25T11:33:12;92484.97;;;20.65;32.95
64402;BME280;50724;42.376;23.768;2023-03-25T11:39:38;92472.41;;;21.32;32.52
64402;BME280;50724;42.376;23.768;2023-03-25T11:42:41;92473.16;;;21.27;31.84
64402;BME280;50724;42.376;23.768;2023-03-25T11:45:45;92467.63;;;21.29;32.28
64402;BME280;50724;42.376;23.768;2023-03-25T11:48:46;92478.44;;;21.65;32.18
64402;BME280;50724;42.376;23.768;2023-03-25T11:51:50;92460.69;;;21.11;32.06
64402;BME280;50724;42.376;23.768;2023-03-25T11:54:54;92459.22;;;20.20;33.91
64402;BME280;50724;42.376;23.768;2023-03-25T11:57:57;92460.88;;;20.10;34.31
64402;BME280;50724;42.376;23.768;2023-03-25T12:04:23;92455.94;;;20.80;33.84
64402;BME280;50724;42.376;23.768;2023-03-25T12:07:24;92445.94;;;21.20;33.82
64402;BME280;50724;42.376;23.768;2023-03-25T12:30:01;92441.78;;;21.07;33.04
64402;BME280;50724;42.376;23.768;2023-03-25T12:33:26;92432.78;;;20.25;33.73
64402;BME280;50724;42.376;23.768;2023-03-25T12:43:05;92449.31;;;20.16;35.23
64402;BME280;50724;42.376;23.768;2023-03-25T13:12:42;92446.53;;;19.14;37.07
64402;BME280;50724;42.376;23.768;2023-03-25T13:15:49;92439.41;;;19.15;37.55
64402;BME280;50724;42.376;23.768;2023-03-25T13:18:53;92443.06;;;19.37;36.95
64402;BME280;50724;42.376;23.768;2023-03-25T13:21:59;92444.56;;;19.21;37.29
64402;BME280;50724;42.376;23.768;2023-03-25T13:25:06;92436.66;;;18.87;37.51
64402;BME280;50724;42.376;23.768;2023-03-25T13:28:20;92439.22;;;18.47;38.33
64402;BME280;50724;42.376;23.768;2023-03-25T13:31:25;92435.63;;;18.53;38.64
64402;BME280;50724;42.376;23.768;2023-03-25T13:37:40;92444.34;;;18.42;39.15
64402;BME280;50724;42.376;23.768;2023-03-25T13:40:50;92438.84;;;18.55;38.99
64402;BME280;50724;42.376;23.768;2023-03-25T13:44:07;92434.50;;;18.72;38.82
64402;BME280;50724;42.376;23.768;2023-03-25T13:47:23;92438.03;;;18.54;38.71
64402;BME280;50724;42.376;23.768;2023-03-25T13:50:26;92427.56;;;18.48;38.36
64402;BME280;50724;42.376;23.768;2023-03-25T13:53:46;92428.47;;;18.42;38.35
64402;BME280;50724;42.376;23.768;2023-03-25T14:07:13;92412.63;;;18.12;39.04
64402;BME280;50724;42.376;23.768;2023-03-25T14:10:48;92428.19;;;18.09;38.98
64402;BME280;50724;42.376;23.768;2023-03-25T14:13:56;92429.81;;;18.10;39.10
64402;BME280;50724;42.376;23.768;2023-03-25T14:16:58;92420.81;;;17.99;39.44
64402;BME280;50724;42.376;23.768;2023-03-25T14:20:02;92402.22;;;17.76;39.51
64402;BME280;50724;42.376;23.768;2023-03-25T14:23:14;92432.31;;;17.63;39.37
64402;BME280;50724;42.376;23.768;2023-03-25T14:26:17;92431.81;;;17.55;39.45
64402;BME280;50724;42.376;23.768;2023-03-25T14:29:36;92434.38;;;17.43;39.77
64402;BME280;50724;42.376;23.768;2023-03-25T14:32:39;92441.88;;;17.28;40.07
64402;BME280;50724;42.376;23.768;2023-03-25T14:35:45;92431.72;;;17.13;40.44
64402;BME280;50724;42.376;23.768;2023-03-25T14:38:51;92428.63;;;16.98;41.98
64402;BME280;50724;42.376;23.768;2023-03-25T14:42:01;92420.19;;;16.72;43.23
64402;BME280;50724;42.376;23.768;2023-03-25T14:52:03;92438.69;;;16.47;43.76
64402;BME280;50724;42.376;23.768;2023-03-25T14:55:33;92444.09;;;16.34;44.64
64402;BME280;50724;42.376;23.768;2023-03-25T14:58:36;92435.84;;;15.99;46.43
64402;BME280;50724;42.376;23.768;2023-03-25T15:01:39;92452.00;;;15.78;48.17
64402;BME280;50724;42.376;23.768;2023-03-25T15:04:52;92470.59;;;15.58;49.59
64402;BME280;50724;42.376;23.768;2023-03-25T15:11:11;92472.75;;;15.30;51.01
64402;BME280;50724;42.376;23.768;2023-03-25T15:14:18;92483.31;;;15.24;51.42
64402;BME280;50724;42.376;23.768;2023-03-25T15:17:45;92493.47;;;15.13;51.80
64402;BME280;50724;42.376;23.768;2023-03-25T15:20:46;92493.50;;;15.07;51.38
64402;BME280;50724;42.376;23.768;2023-03-25T15:23:46;92494.53;;;14.86;51.71
64402;BME280;50724;42.376;23.768;2023-03-25T15:26:48;92503.06;;;14.82;51.46
64402;BME280;50724;42.376;23.768;2023-03-25T15:30:09;92502.88;;;14.70;52.37
64402;BME280;50724;42.376;23.768;2023-03-25T15:33:28;92498.25;;;14.39;56.54
64402;BME280;50724;42.376;23.768;2023-03-25T15:43:46;92522.78;;;13.47;67.89
64402;BME280;50724;42.376;23.768;2023-03-25T15:56:36;92512.91;;;13.49;74.43
64402;BME280;50724;42.376;23.768;2023-03-25T16:06:14;92497.47;;;13.20;71.90
64402;BME280;50724;42.376;23.768;2023-03-25T16:09:19;92503.28;;;13.15;73.00
64402;BME280;50724;42.376;23.768;2023-03-25T16:12:24;92497.03;;;13.23;75.68
64402;BME280;50724;42.376;23.768;2023-03-25T16:15:28;92478.84;;;13.08;71.54
64402;BME280;50724;42.376;23.768;2023-03-25T16:18:29;92471.22;;;12.92;71.31
64402;BME280;50724;42.376;23.768;2023-03-25T16:21:30;92474.56;;;13.07;70.70
64402;BME280;50724;42.376;23.768;2023-03-25T16:24:31;92473.22;;;13.24;69.43
64402;BME280;50724;42.376;23.768;2023-03-25T16:27:35;92475.94;;;13.03;70.17
64402;BME280;50724;42.376;23.768;2023-03-25T16:30:38;92467.56;;;12.80;70.00
64402;BME280;50724;42.376;23.768;2023-03-25T16:33:39;92457.56;;;12.62;72.25
64402;BME280;50724;42.376;23.768;2023-03-25T16:36:45;92466.28;;;12.69;71.47
64402;BME280;50724;42.376;23.768;2023-03-25T16:40:16;92463.06;;;12.67;69.08
64402;BME280;50724;42.376;23.768;2023-03-25T16:43:54;92469.41;;;12.86;65.50
64402;BME280;50724;42.376;23.768;2023-03-25T16:47:09;92456.88;;;12.88;69.26
64402;BME280;50724;42.376;23.768;2023-03-25T16:50:31;92454.09;;;12.96;62.62
64402;BME280;50724;42.376;23.768;2023-03-25T16:53:33;92442.81;;;13.02;62.48
64402;BME280;50724;42.376;23.768;2023-03-25T16:56:36;92437.31;;;12.90;66.26
64402;BME280;50724;42.376;23.768;2023-03-25T16:59:37;92437.63;;;12.68;67.08
64402;BME280;50724;42.376;23.768;2023-03-25T17:02:39;92429.31;;;12.58;67.08
64402;BME280;50724;42.376;23.768;2023-03-25T17:05:59;92428.59;;;12.42;67.81
64402;BME280;50724;42.376;23.768;2023-03-25T17:09:01;92439.38;;;11.92;70.91
64402;BME280;50724;42.376;23.768;2023-03-25T17:12:09;92434.09;;;11.86;70.81
64402;BME280;50724;42.376;23.768;2023-03-25T17:15:13;92436.38;;;11.95;69.66
64402;BME280;50724;42.376;23.768;2023-03-25T17:18:15;92438.19;;;11.95;69.96
64402;BME280;50724;42.376;23.768;2023-03-25T17:21:23;92440.53;;;11.83;70.01
64402;BME280;50724;42.376;23.768;2023-03-25T17:24:25;92441.94;;;11.86;69.79
64402;BME280;50724;42.376;23.768;2023-03-25T17:27:33;92448.44;;;11.68;70.03
64402;BME280;50724;42.376;23.768;2023-03-25T17:30:40;92442.44;;;11.74;69.83
64402;BME280;50724;42.376;23.768;2023-03-25T17:33:52;92442.03;;;11.71;70.84
64402;BME280;50724;42.376;23.768;2023-03-25T17:37:00;92445.50;;;11.57;69.41
64402;BME280;50724;42.376;23.768;2023-03-25T17:40:05;92455.66;;;11.45;70.40
64402;BME280;50724;42.376;23.768;2023-03-25T17:43:17;92451.97;;;11.40;71.67
64402;BME280;50724;42.376;23.768;2023-03-25T17:46:23;92455.97;;;11.36;71.92
64402;BME280;50724;42.376;23.768;2023-03-25T17:49:24;92457.78;;;11.35;70.24
64402;BME280;50724;42.376;23.768;2023-03-25T17:52:25;92453.47;;;11.28;71.11
64402;BME280;50724;42.376;23.768;2023-03-25T17:55:27;92452.78;;;11.19;70.88
64402;BME280;50724;42.376;23.768;2023-03-25T17:58:27;92451.00;;;11.05;71.59
64402;BME280;50724;42.376;23.768;2023-03-25T18:01:29;92452.69;;;11.27;69.98
64402;BME280;50724;42.376;23.768;2023-03-25T18:04:30;92443.88;;;11.35;68.94
64402;BME280;50724;42.376;23.768;2023-03-25T18:07:31;92453.72;;;11.33;68.66
64402;BME280;50724;42.376;23.768;2023-03-25T18:10:33;92445.53;;;11.00;70.92
64402;BME280;50724;42.376;23.768;2023-03-25T18:13:34;92441.03;;;10.94;71.22
64402;BME280;50724;42.376;23.768;2023-03-25T18:16:35;92448.81;;;10.87;72.53
64402;BME280;50724;42.376;23.768;2023-03-25T18:19:35;92449.88;;;10.93;72.96
64402;BME280;50724;42.376;23.768;2023-03-25T18:22:36;92454.84;;;10.88;73.14
64402;BME280;50724;42.376;23.768;2023-03-25T18:25:36;92457.03;;;10.84;72.41
64402;BME280;50724;42.376;23.768;2023-03-25T18:28:37;92463.78;;;10.79;71.80
64402;BME280;50724;42.376;23.768;2023-03-25T18:31:41;92469.06;;;10.64;72.02
64402;BME280;50724;42.376;23.768;2023-03-25T18:34:42;92470.94;;;10.70;71.84
64402;BME280;50724;42.376;23.768;2023-03-25T18:37:44;92470.78;;;10.57;72.14
64402;BME280;50724;42.376;23.768;2023-03-25T18:40:46;92467.16;;;10.73;71.29
64402;BME280;50724;42.376;23.768;2023-03-25T18:43:47;92471.66;;;10.64;70.98
64402;BME280;50724;42.376;23.768;2023-03-25T18:46:47;92464.47;;;10.52;72.33
64402;BME280;50724;42.376;23.768;2023-03-25T18:49:48;92464.00;;;10.48;73.79
64402;BME280;50724;42.376;23.768;2023-03-25T18:52:49;92465.16;;;10.75;72.99
64402;BME280;50724;42.376;23.768;2023-03-25T18:55:50;92462.94;;;10.57;73.64